Time;durP1;ratioP1;P1;durP2;ratioP2;P2;SDS_P1;SDS_P2;PMS_P1;PMS_P2;Temp;Humidity;BMP_temperature;BMP_pressure;BME280_temperature;BME280_humidity;BME280_pressure;Samples;Min_cycle;Max_cycle;Signal;HPM_P1;HPM_P2
2021/04/16 00:00:06;;;;;;;3.50;3.00;;;;;;;;;;5054826;28;20459;-73
2021/04/16 00:02:32;;;;;;;4.10;3.20;;;;;;;;;;5053709;28;20405;-73
2021/04/16 00:04:58;;;;;;;3.93;2.90;;;;;;;;;;5055540;28;20476;-72
2021/04/16 00:07:24;;;;;;;5.07;2.80;;;;;;;;;;5053522;28;20825;-73
2021/04/16 00:09:50;;;;;;;3.60;2.93;;;;;;;;;;5035615;28;20876;-72
2021/04/16 00:12:17;;;;;;;4.10;3.30;;;;;;;;;;5053350;28;20855;-73
2021/04/16 00:14:43;;;;;;;4.77;2.87;;;;;;;;;;5040422;28;20427;-72
2021/04/16 00:17:09;;;;;;;4.10;3.57;;;;;;;;;;5053354;28;20418;-72
2021/04/16 00:19:35;;;;;;;4.63;3.70;;;;;;;;;;5065125;28;20517;-72
2021/04/16 00:22:01;;;;;;;4.17;3.00;;;;;;;;;;5072177;28;20433;-72
2021/04/16 00:24:27;;;;;;;4.03;2.83;;;;;;;;;;5072034;28;20435;-72
2021/04/16 00:26:53;;;;;;;3.83;2.97;;;;;;;;;;5072942;28;20456;-73
2021/04/16 00:29:19;;;;;;;4.80;3.30;;;;;;;;;;5072235;28;20447;-72
2021/04/16 00:31:52;;;;;;;5.13;2.83;;;;;;;;;;5073133;28;20936;-72
2021/04/16 00:34:20;;;;;;;5.20;3.30;;;;;;;;;;5054223;28;20484;-72
2021/04/16 00:36:46;;;;;;;4.43;3.50;;;;;;;;;;5073306;28;20430;-72
2021/04/16 00:39:12;;;;;;;4.97;3.17;;;;;;;;;;5050964;28;20533;-72
2021/04/16 00:41:38;;;;;;;5.20;3.43;;;;;;;;;;5052827;28;20441;-72
2021/04/16 00:44:04;;;;;;;5.60;2.70;;;;;;;;;;5059854;28;20479;-72
2021/04/16 00:46:36;;;;;;;4.90;3.03;;;;;;;;;;5072812;28;20968;-72
2021/04/16 00:49:04;;;;;;;7.43;3.00;;;;;;;;;;5071904;28;20451;-72
2021/04/16 00:51:36;;;;;;;3.43;3.13;;;;;;;;;;5072963;28;20415;-72
2021/04/16 00:54:03;;;;;;;5.67;3.50;;;;;;;;;;5063931;28;20433;-72
2021/04/16 00:56:29;;;;;;;3.27;2.80;;;;;;;;;;5052790;28;20489;-72
2021/04/16 00:58:55;;;;;;;3.53;2.73;;;;;;;;;;5052620;28;20984;-72
2021/04/16 01:01:22;;;;;;;4.60;3.10;;;;;;;;;;5034744;28;20411;-72
2021/04/16 01:03:49;;;;;;;4.73;3.53;;;;;;;;;;5057405;28;20887;-72
2021/04/16 01:06:15;;;;;;;4.20;3.23;;;;;;;;;;5072597;28;20449;-72
2021/04/16 01:08:41;;;;;;;5.43;2.80;;;;;;;;;;5071240;28;20446;-72
2021/04/16 01:11:08;;;;;;;5.70;3.70;;;;;;;;;;5072754;28;20449;-72
2021/04/16 01:13:38;;;;;;;5.00;4.10;;;;;;;;;;5053790;28;20402;-72
2021/04/16 01:16:05;;;;;;;5.10;3.47;;;;;;;;;;5072530;28;20446;-72
2021/04/16 01:18:33;;;;;;;4.80;3.77;;;;;;;;;;5072436;28;20422;-72
2021/04/16 01:21:01;;;;;;;6.77;4.10;;;;;;;;;;5071612;28;20430;-72
2021/04/16 01:23:31;;;;;;;8.00;4.20;;;;;;;;;;5073042;28;20412;-72
2021/04/16 01:25:58;;;;;;;4.67;3.20;;;;;;;;;;5071619;28;20448;-72
2021/04/16 01:28:24;;;;;;;5.77;4.20;;;;;;;;;;5072569;28;20442;-72
2021/04/16 01:30:53;;;;;;;7.43;3.80;;;;;;;;;;5056117;28;20859;-72
2021/04/16 01:33:19;;;;;;;4.90;3.77;;;;;;;;;;5052570;28;20441;-72
2021/04/16 01:35:45;;;;;;;6.10;3.67;;;;;;;;;;5067039;28;20422;-72
2021/04/16 01:38:12;;;;;;;6.77;3.90;;;;;;;;;;5072424;28;20787;-72
2021/04/16 01:40:38;;;;;;;7.17;4.73;;;;;;;;;;5071453;28;20789;-72
2021/04/16 01:43:16;;;;;;;4.40;3.30;;;;;;;;;;5053304;28;20949;-73
2021/04/16 01:45:42;;;;;;;4.87;3.97;;;;;;;;;;5069097;28;20422;-73
2021/04/16 01:48:08;;;;;;;5.90;3.40;;;;;;;;;;5072591;28;20430;-72
2021/04/16 01:50:34;;;;;;;6.50;4.07;;;;;;;;;;5071162;28;20421;-72
2021/04/16 01:53:01;;;;;;;5.17;4.00;;;;;;;;;;5073177;28;20390;-72
2021/04/16 01:55:27;;;;;;;6.67;4.00;;;;;;;;;;5075145;28;20854;-72
2021/04/16 01:57:53;;;;;;;6.10;3.93;;;;;;;;;;5076099;28;20456;-72
2021/04/16 02:00:32;;;;;;;7.83;4.53;;;;;;;;;;5074963;28;20922;-72
2021/04/16 02:02:58;;;;;;;5.20;3.90;;;;;;;;;;5057180;28;20439;-72
2021/04/16 02:05:24;;;;;;;4.83;3.57;;;;;;;;;;5075088;28;20482;-72
2021/04/16 02:07:52;;;;;;;6.50;3.77;;;;;;;;;;5075803;28;20983;-72
2021/04/16 02:10:18;;;;;;;7.97;3.63;;;;;;;;;;5056902;28;20475;-72
2021/04/16 02:12:44;;;;;;;5.70;3.67;;;;;;;;;;5075849;28;20809;-72
2021/04/16 02:15:10;;;;;;;12.50;4.97;;;;;;;;;;5073846;28;20921;-72
2021/04/16 02:17:37;;;;;;;4.77;3.60;;;;;;;;;;5076026;28;20425;-72
2021/04/16 02:20:06;;;;;;;4.10;3.57;;;;;;;;;;5074988;28;20430;-72
2021/04/16 02:22:32;;;;;;;5.40;3.87;;;;;;;;;;5057813;28;20414;-72
2021/04/16 02:24:58;;;;;;;8.53;3.80;;;;;;;;;;5074572;28;20460;-73
2021/04/16 02:27:26;;;;;;;4.80;3.90;;;;;;;;;;5075938;28;20467;-72
2021/04/16 02:29:52;;;;;;;5.63;3.83;;;;;;;;;;5056577;28;20502;-72
2021/04/16 02:32:19;;;;;;;6.67;3.57;;;;;;;;;;5075544;28;20399;-72
2021/04/16 02:34:45;;;;;;;6.50;4.17;;;;;;;;;;5070531;28;20422;-73
2021/04/16 02:37:12;;;;;;;6.17;4.00;;;;;;;;;;5055384;28;21000;-72
2021/04/16 02:39:39;;;;;;;15.67;4.40;;;;;;;;;;5055050;28;21103;-72
2021/04/16 02:42:05;;;;;;;5.10;4.20;;;;;;;;;;5055564;28;20411;-72
2021/04/16 02:44:32;;;;;;;7.00;4.07;;;;;;;;;;5056779;28;20403;-72
2021/04/16 02:46:58;;;;;;;8.53;4.03;;;;;;;;;;5071461;28;20871;-72
2021/04/16 02:49:24;;;;;;;5.00;3.70;;;;;;;;;;5072457;28;20449;-72
2021/04/16 02:51:50;;;;;;;7.50;4.20;;;;;;;;;;5037295;28;20411;-72
2021/04/16 02:54:17;;;;;;;6.60;3.90;;;;;;;;;;5054919;28;20402;-72
2021/04/16 02:56:43;;;;;;;5.43;4.40;;;;;;;;;;5074806;28;20440;-72
2021/04/16 02:59:09;;;;;;;4.90;3.83;;;;;;;;;;5075231;28;20483;-72
2021/04/16 03:01:36;;;;;;;5.00;4.20;;;;;;;;;;5060323;28;20757;-72
2021/04/16 03:04:03;;;;;;;6.03;4.57;;;;;;;;;;5075526;28;20882;-73
2021/04/16 03:06:29;;;;;;;6.90;4.17;;;;;;;;;;5074650;28;20885;-73
2021/04/16 03:08:56;;;;;;;4.97;4.03;;;;;;;;;;5074995;28;20501;-72
2021/04/16 03:11:23;;;;;;;6.77;5.10;;;;;;;;;;5074161;28;20421;-72
2021/04/16 03:13:49;;;;;;;5.33;3.50;;;;;;;;;;5075142;28;20453;-72
2021/04/16 03:16:16;;;;;;;4.57;3.93;;;;;;;;;;5059109;28;20437;-72
2021/04/16 03:18:42;;;;;;;5.70;4.10;;;;;;;;;;5054752;28;20937;-72
2021/04/16 03:21:08;;;;;;;4.83;4.40;;;;;;;;;;5054531;28;20790;-73
2021/04/16 03:23:34;;;;;;;6.20;4.13;;;;;;;;;;5054936;28;20409;-72
2021/04/16 03:26:00;;;;;;;8.50;4.83;;;;;;;;;;5066648;28;20547;-72
2021/04/16 03:28:26;;;;;;;5.43;3.93;;;;;;;;;;5074643;28;20847;-72
2021/04/16 03:30:52;;;;;;;6.13;4.80;;;;;;;;;;5058032;28;20784;-72
2021/04/16 03:33:19;;;;;;;4.80;4.30;;;;;;;;;;5074451;28;20398;-72
2021/04/16 03:35:45;;;;;;;7.13;4.70;;;;;;;;;;5055538;28;20994;-72
2021/04/16 03:38:11;;;;;;;5.47;4.90;;;;;;;;;;5074623;28;20430;-72
2021/04/16 03:40:38;;;;;;;6.03;4.70;;;;;;;;;;5059038;28;20427;-72
2021/04/16 03:43:04;;;;;;;7.50;5.17;;;;;;;;;;5054407;28;20431;-74
2021/04/16 03:45:30;;;;;;;5.87;4.50;;;;;;;;;;5054258;28;20423;-73
2021/04/16 03:47:56;;;;;;;5.77;4.27;;;;;;;;;;5054081;28;20474;-73
2021/04/16 03:50:24;;;;;;;6.50;5.40;;;;;;;;;;5065536;28;20425;-73
2021/04/16 03:52:50;;;;;;;5.20;4.20;;;;;;;;;;5056072;28;20480;-73
2021/04/16 03:55:17;;;;;;;6.33;4.97;;;;;;;;;;5072972;28;20425;-73
2021/04/16 03:57:43;;;;;;;9.90;5.10;;;;;;;;;;5074135;28;20793;-73
2021/04/16 04:00:10;;;;;;;7.40;5.43;;;;;;;;;;5063344;28;20439;-73
2021/04/16 04:02:36;;;;;;;9.60;5.57;;;;;;;;;;5054616;28;20407;-73
2021/04/16 04:05:03;;;;;;;7.07;6.10;;;;;;;;;;5053868;28;20437;-73
2021/04/16 04:07:29;;;;;;;7.43;5.43;;;;;;;;;;5053782;28;20825;-73
2021/04/16 04:09:55;;;;;;;6.63;5.60;;;;;;;;;;5053885;28;20917;-73
2021/04/16 04:12:21;;;;;;;6.77;5.00;;;;;;;;;;5053921;28;20887;-73
2021/04/16 04:14:47;;;;;;;6.60;4.70;;;;;;;;;;5059749;28;20421;-73
2021/04/16 04:17:27;;;;;;;9.33;5.53;;;;;;;;;;5073899;28;20531;-73
2021/04/16 04:19:53;;;;;;;7.27;4.97;;;;;;;;;;5066172;28;20912;-73
2021/04/16 04:22:20;;;;;;;9.70;5.73;;;;;;;;;;5053616;28;20412;-73
2021/04/16 04:24:46;;;;;;;7.37;5.20;;;;;;;;;;5058928;28;20441;-73
2021/04/16 04:27:12;;;;;;;8.90;6.00;;;;;;;;;;5073449;28;20472;-73
2021/04/16 04:29:38;;;;;;;5.83;4.50;;;;;;;;;;5072715;28;20461;-73
2021/04/16 04:32:05;;;;;;;10.00;6.07;;;;;;;;;;5070780;28;20402;-73
2021/04/16 04:34:31;;;;;;;8.87;5.97;;;;;;;;;;5056294;28;20426;-73
2021/04/16 04:36:58;;;;;;;7.67;5.63;;;;;;;;;;5055257;28;20410;-73
2021/04/16 04:39:25;;;;;;;5.70;4.30;;;;;;;;;;5072631;28;20772;-73
2021/04/16 04:41:51;;;;;;;10.67;5.43;;;;;;;;;;5073090;28;20467;-73
2021/04/16 04:44:17;;;;;;;8.37;5.87;;;;;;;;;;5072312;28;20397;-72
2021/04/16 04:46:44;;;;;;;6.33;5.60;;;;;;;;;;5071736;28;20465;-72
2021/04/16 04:49:10;;;;;;;7.00;4.87;;;;;;;;;;5072903;28;20802;-72
2021/04/16 04:51:36;;;;;;;6.07;5.07;;;;;;;;;;5054231;28;20421;-72
2021/04/16 04:54:03;;;;;;;8.33;5.93;;;;;;;;;;5073103;28;20413;-72
2021/04/16 04:56:29;;;;;;;8.43;6.23;;;;;;;;;;5053998;28;20513;-72
2021/04/16 04:58:55;;;;;;;9.67;6.50;;;;;;;;;;5064720;28;20449;-72
2021/04/16 05:01:21;;;;;;;8.30;6.77;;;;;;;;;;5073031;28;20436;-72
2021/04/16 05:03:47;;;;;;;8.27;6.23;;;;;;;;;;5071819;28;20928;-72
2021/04/16 05:06:13;;;;;;;6.90;6.17;;;;;;;;;;5071796;28;21033;-72
2021/04/16 05:08:39;;;;;;;9.57;6.70;;;;;;;;;;5054513;28;20919;-73
2021/04/16 05:11:08;;;;;;;9.37;6.87;;;;;;;;;;5055002;28;20497;-72
2021/04/16 05:13:34;;;;;;;8.30;7.07;;;;;;;;;;5062714;28;20434;-72
2021/04/16 05:16:00;;;;;;;8.63;6.13;;;;;;;;;;5053758;28;20505;-72
2021/04/16 05:18:26;;;;;;;9.63;7.10;;;;;;;;;;5061083;28;20965;-72
2021/04/16 05:20:52;;;;;;;9.87;7.20;;;;;;;;;;5073086;28;20588;-72
2021/04/16 05:23:18;;;;;;;10.60;7.43;;;;;;;;;;5054500;28;20959;-72
2021/04/16 05:25:44;;;;;;;9.67;6.90;;;;;;;;;;5073200;28;20407;-73
2021/04/16 05:28:10;;;;;;;9.97;7.33;;;;;;;;;;5085763;22;20493;-66
2021/04/16 05:30:36;;;;;;;11.13;7.70;;;;;;;;;;5082134;28;20397;-66
2021/04/16 05:33:02;;;;;;;13.43;8.20;;;;;;;;;;5079018;28;20418;-66
2021/04/16 05:35:29;;;;;;;12.03;7.20;;;;;;;;;;5080549;28;20428;-66
2021/04/16 05:37:58;;;;;;;14.23;7.57;;;;;;;;;;5072804;28;20451;-67
2021/04/16 05:40:27;;;;;;;14.90;8.40;;;;;;;;;;5042084;28;20411;-66
2021/04/16 05:42:54;;;;;;;11.30;7.90;;;;;;;;;;5047644;28;20422;-66
2021/04/16 05:45:20;;;;;;;9.70;6.80;;;;;;;;;;5082746;28;20813;-66
2021/04/16 05:47:46;;;;;;;9.17;7.37;;;;;;;;;;5076722;28;20544;-66
2021/04/16 05:50:14;;;;;;;9.53;6.83;;;;;;;;;;5041735;28;20865;-66
2021/04/16 05:52:40;;;;;;;12.87;8.10;;;;;;;;;;5024468;28;20410;-66
2021/04/16 05:55:06;;;;;;;10.83;7.20;;;;;;;;;;5061258;28;20867;-66
2021/04/16 05:57:32;;;;;;;10.93;8.27;;;;;;;;;;5061167;28;20461;-67
2021/04/16 05:59:58;;;;;;;10.53;7.80;;;;;;;;;;5060752;28;20418;-67
2021/04/16 06:02:26;;;;;;;12.90;6.47;;;;;;;;;;5062301;28;20403;-67
2021/04/16 06:04:52;;;;;;;10.37;7.30;;;;;;;;;;5078867;28;20425;-67
2021/04/16 06:07:19;;;;;;;9.50;7.37;;;;;;;;;;5080978;28;20438;-67
2021/04/16 06:09:45;;;;;;;12.00;6.90;;;;;;;;;;5061533;28;20433;-67
2021/04/16 06:12:11;;;;;;;8.23;6.60;;;;;;;;;;5079892;28;20456;-67
2021/04/16 06:14:37;;;;;;;9.47;7.03;;;;;;;;;;5048023;28;20509;-67
2021/04/16 06:17:03;;;;;;;10.43;7.57;;;;;;;;;;5041094;28;20405;-67
2021/04/16 06:19:29;;;;;;;11.90;7.33;;;;;;;;;;5070466;28;20434;-67
2021/04/16 06:21:55;;;;;;;13.93;8.37;;;;;;;;;;5081393;28;20410;-65
2021/04/16 06:24:21;;;;;;;9.63;7.30;;;;;;;;;;5079476;28;20434;-65
2021/04/16 06:26:47;;;;;;;9.33;6.50;;;;;;;;;;5080713;28;20441;-66
2021/04/16 06:29:13;;;;;;;11.37;7.07;;;;;;;;;;5055685;28;20456;-65
2021/04/16 06:31:39;;;;;;;8.67;7.23;;;;;;;;;;5042035;28;21018;-65
2021/04/16 06:34:05;;;;;;;9.33;6.80;;;;;;;;;;5063580;28;20426;-65
2021/04/16 06:36:31;;;;;;;11.00;6.97;;;;;;;;;;5080437;28;20407;-65
2021/04/16 06:38:58;;;;;;;10.30;7.67;;;;;;;;;;5078106;28;20495;-67
2021/04/16 06:41:25;;;;;;;9.13;7.40;;;;;;;;;;5080558;28;20438;-67
2021/04/16 06:43:59;;;;;;;9.23;6.77;;;;;;;;;;5078134;28;20441;-65
2021/04/16 06:46:27;;;;;;;9.73;7.20;;;;;;;;;;5079903;28;20442;-65
2021/04/16 06:48:56;;;;;;;8.63;7.00;;;;;;;;;;5078515;28;20450;-65
2021/04/16 06:51:22;;;;;;;12.50;7.97;;;;;;;;;;5080850;28;20405;-65
2021/04/16 06:53:58;;;;;;;8.30;6.77;;;;;;;;;;5079219;28;20422;-66
2021/04/16 06:56:41;;;;;;;8.67;7.07;;;;;;;;;;5057932;28;20431;-65
2021/04/16 06:59:09;;;;;;;7.80;6.73;;;;;;;;;;5065072;28;20452;-66
2021/04/16 07:01:35;;;;;;;8.87;6.20;;;;;;;;;;5040844;28;20445;-65
2021/04/16 07:04:21;;;;;;;7.57;6.47;;;;;;;;;;5069305;28;20429;-65
2021/04/16 07:06:50;;;;;;;10.80;6.50;;;;;;;;;;5068505;28;20457;-65
2021/04/16 07:09:18;;;;;;;13.33;6.90;;;;;;;;;;5068997;28;20453;-65
2021/04/16 07:11:47;;;;;;;10.57;6.53;;;;;;;;;;5060891;28;20913;-65
2021/04/16 07:14:32;;;;;;;9.67;6.63;;;;;;;;;;5068695;28;20425;-65
2021/04/16 07:16:58;;;;;;;9.20;6.77;;;;;;;;;;5044946;28;20500;-65
2021/04/16 07:19:26;;;;;;;10.23;7.20;;;;;;;;;;5056271;28;20462;-66
2021/04/16 07:22:16;;;;;;;9.77;6.40;;;;;;;;;;5049979;28;20437;-66
2021/04/16 07:24:43;;;;;;;8.07;6.00;;;;;;;;;;5052036;28;20486;-65
2021/04/16 07:27:17;;;;;;;8.67;6.23;;;;;;;;;;5057314;28;20448;-64
2021/04/16 07:29:44;;;;;;;8.53;6.70;;;;;;;;;;5035720;28;20435;-65
2021/04/16 07:32:32;;;;;;;6.43;5.63;;;;;;;;;;5056619;28;20421;-65
2021/04/16 07:35:16;;;;;;;9.30;5.20;;;;;;;;;;5060274;28;20435;-64
2021/04/16 07:37:45;;;;;;;8.40;5.03;;;;;;;;;;5057194;28;20441;-65
2021/04/16 07:40:13;;;;;;;7.17;4.70;;;;;;;;;;5058248;28;20426;-65
2021/04/16 07:42:43;;;;;;;8.03;6.20;;;;;;;;;;5057124;28;20461;-64
2021/04/16 07:45:18;;;;;;;7.43;5.73;;;;;;;;;;5053555;28;20427;-64
2021/04/16 07:47:45;;;;;;;8.07;6.10;;;;;;;;;;5056120;28;20508;-64
2021/04/16 07:50:11;;;;;;;8.17;6.13;;;;;;;;;;5053557;28;20479;-64
2021/04/16 07:52:42;;;;;;;9.73;6.23;;;;;;;;;;5059316;28;20850;-64
2021/04/16 07:55:26;;;;;;;7.17;5.93;;;;;;;;;;5054827;28;20489;-64
2021/04/16 07:58:01;;;;;;;6.77;5.17;;;;;;;;;;5055665;28;20453;-63
2021/04/16 08:00:27;;;;;;;5.90;5.00;;;;;;;;;;5058880;28;20426;-64
2021/04/16 08:02:54;;;;;;;6.63;4.77;;;;;;;;;;5055545;28;20462;-65
2021/04/16 08:05:26;;;;;;;7.80;5.20;;;;;;;;;;5066526;28;20430;-64
2021/04/16 08:08:07;;;;;;;7.07;5.17;;;;;;;;;;5061328;28;20524;-64
2021/04/16 08:10:36;;;;;;;8.10;5.10;;;;;;;;;;5060018;28;20831;-64
2021/04/16 08:13:28;;;;;;;6.53;5.03;;;;;;;;;;5045451;28;20433;-64
2021/04/16 08:15:55;;;;;;;8.63;5.60;;;;;;;;;;5047495;28;20976;-65
2021/04/16 08:18:21;;;;;;;7.20;5.63;;;;;;;;;;5053894;28;20428;-64
2021/04/16 08:20:58;;;;;;;6.17;4.70;;;;;;;;;;5055547;28;20951;-64
2021/04/16 08:23:27;;;;;;;7.80;5.90;;;;;;;;;;5033945;28;20934;-64
2021/04/16 08:25:55;;;;;;;6.77;5.27;;;;;;;;;;5049931;28;20477;-64
2021/04/16 08:28:40;;;;;;;7.10;5.57;;;;;;;;;;5053264;28;20474;-65
2021/04/16 08:31:08;;;;;;;7.37;5.87;;;;;;;;;;5049719;28;20436;-65
2021/04/16 08:33:37;;;;;;;8.33;6.47;;;;;;;;;;5050625;28;20415;-65
2021/04/16 08:36:07;;;;;;;7.67;5.63;;;;;;;;;;5032458;28;20440;-65
2021/04/16 08:38:37;;;;;;;7.07;5.60;;;;;;;;;;5050903;28;20790;-65
2021/04/16 08:41:04;;;;;;;7.50;5.30;;;;;;;;;;5050313;28;20428;-65
2021/04/16 08:43:44;;;;;;;9.33;5.80;;;;;;;;;;5050634;28;20784;-65
2021/04/16 08:46:19;;;;;;;6.70;5.40;;;;;;;;;;5047679;28;20444;-64
2021/04/16 08:48:52;;;;;;;8.10;5.50;;;;;;;;;;5050366;28;20497;-65
2021/04/16 08:51:18;;;;;;;6.70;5.20;;;;;;;;;;5049038;28;20412;-64
2021/04/16 08:53:44;;;;;;;8.90;5.60;;;;;;;;;;5049893;28;20452;-64
2021/04/16 08:56:25;;;;;;;7.23;5.17;;;;;;;;;;5048752;28;20424;-64
2021/04/16 08:58:52;;;;;;;6.33;4.90;;;;;;;;;;5050008;28;20436;-63
2021/04/16 09:01:21;;;;;;;7.50;5.70;;;;;;;;;;5048467;28;20456;-64
2021/04/16 09:03:52;;;;;;;5.63;4.47;;;;;;;;;;5048596;28;20527;-65
2021/04/16 09:06:23;;;;;;;6.50;4.70;;;;;;;;;;5047768;28;20537;-66
2021/04/16 09:08:50;;;;;;;7.00;5.10;;;;;;;;;;5048685;28;20500;-64
2021/04/16 09:11:35;;;;;;;6.20;4.73;;;;;;;;;;5047802;28;20508;-65
2021/04/16 09:14:01;;;;;;;7.97;4.87;;;;;;;;;;5050225;28;20751;-65
2021/04/16 09:16:38;;;;;;;5.70;4.23;;;;;;;;;;5050677;28;20427;-64
2021/04/16 09:19:23;;;;;;;7.83;4.63;;;;;;;;;;5051307;28;20454;-63
2021/04/16 09:22:00;;;;;;;5.20;4.00;;;;;;;;;;5046955;28;20442;-63
2021/04/16 09:24:43;;;;;;;8.27;5.00;;;;;;;;;;5049679;28;20844;-64
2021/04/16 09:27:17;;;;;;;7.93;4.73;;;;;;;;;;5052146;28;20812;-64
2021/04/16 09:29:44;;;;;;;6.27;4.17;;;;;;;;;;5013795;28;20444;-64
2021/04/16 09:32:29;;;;;;;5.60;3.97;;;;;;;;;;5029701;28;20431;-64
2021/04/16 09:34:55;;;;;;;5.27;3.93;;;;;;;;;;5052683;28;20442;-64
2021/04/16 09:37:32;;;;;;;5.50;4.03;;;;;;;;;;5050982;28;20439;-64
2021/04/16 09:40:01;;;;;;;5.97;4.17;;;;;;;;;;5053325;28;20435;-64
2021/04/16 09:42:35;;;;;;;5.43;4.00;;;;;;;;;;5052394;28;20958;-65
2021/04/16 09:45:02;;;;;;;4.40;3.97;;;;;;;;;;5051968;28;20527;-64
2021/04/16 09:47:39;;;;;;;5.20;4.13;;;;;;;;;;5052867;28;20557;-64
2021/04/16 09:50:06;;;;;;;5.60;4.17;;;;;;;;;;5053741;28;20954;-66
2021/04/16 09:52:32;;;;;;;6.90;4.73;;;;;;;;;;5051911;28;20408;-65
2021/04/16 09:54:58;;;;;;;5.23;3.97;;;;;;;;;;5051812;28;20423;-64
2021/04/16 09:57:40;;;;;;;6.20;5.03;;;;;;;;;;5052149;28;20525;-65
2021/04/16 10:00:26;;;;;;;6.17;4.60;;;;;;;;;;5039193;28;20797;-65
2021/04/16 10:03:12;;;;;;;6.10;4.23;;;;;;;;;;5021688;28;20430;-66
2021/04/16 10:05:38;;;;;;;6.03;4.73;;;;;;;;;;5053014;28;20438;-65
2021/04/16 10:08:15;;;;;;;6.77;5.03;;;;;;;;;;5056058;28;20512;-66
2021/04/16 10:10:45;;;;;;;9.97;5.27;;;;;;;;;;5056186;28;20459;-66
2021/04/16 10:13:13;;;;;;;7.07;4.70;;;;;;;;;;5048184;28;20434;-65
2021/04/16 10:15:41;;;;;;;9.20;4.87;;;;;;;;;;5061986;28;20515;-66
2021/04/16 10:18:14;;;;;;;6.37;4.97;;;;;;;;;;5056062;28;20420;-65
2021/04/16 10:20:53;;;;;;;7.00;4.40;;;;;;;;;;5055747;28;20431;-65
2021/04/16 10:23:22;;;;;;;5.07;4.43;;;;;;;;;;5055669;28;20840;-65
2021/04/16 12:38:33;;;;;;;5.40;4.57;;;;;;;;;;5052101;28;20205;-68
2021/04/16 12:41:04;;;;;;;7.23;5.40;;;;;;;;;;5051826;28;20420;-68
2021/04/16 12:43:30;;;;;;;6.95;4.55;;;;;;;;;;5050492;28;20444;-67
2021/04/16 12:45:57;;;;;;;5.27;4.77;;;;;;;;;;5052024;28;20186;-69
2021/04/16 12:48:24;;;;;;;5.37;4.53;;;;;;;;;;5050804;28;20897;-68
2021/04/16 12:50:50;;;;;;;5.83;4.57;;;;;;;;;;5052547;28;20538;-68
2021/04/16 12:53:16;;;;;;;6.50;4.87;;;;;;;;;;5055731;28;20473;-68
2021/04/16 12:55:42;;;;;;;6.70;5.80;;;;;;;;;;5055201;28;20423;-68
2021/04/16 12:58:10;;;;;;;5.87;4.97;;;;;;;;;;5054630;28;20448;-68
2021/04/16 13:00:37;;;;;;;5.97;5.00;;;;;;;;;;5057130;28;20503;-67
2021/04/16 13:03:09;;;;;;;7.20;5.30;;;;;;;;;;5056361;28;20895;-68
2021/04/16 13:05:36;;;;;;;6.33;5.20;;;;;;;;;;5051438;28;21160;-66
2021/04/16 13:08:04;;;;;;;12.53;6.20;;;;;;;;;;5051075;28;20462;-68
2021/04/16 13:10:30;;;;;;;5.80;4.70;;;;;;;;;;5052210;28;20475;-65
2021/04/16 13:12:56;;;;;;;4.70;4.20;;;;;;;;;;5057343;28;20511;-65
2021/04/16 13:15:23;;;;;;;6.03;5.37;;;;;;;;;;5053015;28;20423;-66
2021/04/16 13:17:53;;;;;;;7.63;5.05;;;;;;;;;;5049999;28;20426;-69
2021/04/16 13:20:20;;;;;;;5.37;4.87;;;;;;;;;;5052910;28;20507;-67
2021/04/16 13:22:46;;;;;;;8.13;5.00;;;;;;;;;;5050292;28;20943;-67
2021/04/16 13:25:14;;;;;;;6.67;5.00;;;;;;;;;;5050361;28;20469;-65
2021/04/16 13:27:41;;;;;;;6.00;4.60;;;;;;;;;;5050346;28;20480;-67
2021/04/16 13:30:08;;;;;;;7.07;4.80;;;;;;;;;;5048759;28;20437;-68
2021/04/16 13:32:42;;;;;;;6.83;4.50;;;;;;;;;;5053935;28;20846;-68
2021/04/16 13:35:09;;;;;;;7.27;5.60;;;;;;;;;;5051572;28;20416;-68
2021/04/16 13:37:35;;;;;;;6.50;4.43;;;;;;;;;;5050109;28;20455;-66
2021/04/16 13:40:01;;;;;;;6.73;5.13;;;;;;;;;;5046670;28;20438;-66
2021/04/16 13:42:27;;;;;;;5.70;4.80;;;;;;;;;;5051866;28;20458;-66
2021/04/16 13:44:53;;;;;;;6.30;5.27;;;;;;;;;;5052520;28;20420;-65
2021/04/16 13:47:22;;;;;;;7.23;4.50;;;;;;;;;;5052165;28;20447;-66
2021/04/16 13:49:48;;;;;;;5.67;4.90;;;;;;;;;;5053684;28;20447;-67
2021/04/16 13:52:14;;;;;;;6.07;5.20;;;;;;;;;;5057266;28;20772;-65
2021/04/16 13:54:42;;;;;;;5.43;4.67;;;;;;;;;;5053695;28;20577;-67
2021/04/16 13:57:08;;;;;;;4.90;4.33;;;;;;;;;;5057913;28;20460;-66
2021/04/16 13:59:34;;;;;;;7.03;5.17;;;;;;;;;;5061760;28;20868;-66
2021/04/16 14:02:01;;;;;;;8.53;6.53;;;;;;;;;;5058382;28;20427;-67
2021/04/16 14:04:28;;;;;;;5.90;5.13;;;;;;;;;;5056498;28;20502;-66
2021/04/16 14:06:57;;;;;;;5.47;4.40;;;;;;;;;;5056055;28;20980;-69
2021/04/16 14:09:25;;;;;;;6.10;5.33;;;;;;;;;;5059052;28;20537;-68
2021/04/16 14:11:54;;;;;;;5.00;4.37;;;;;;;;;;5068753;28;20505;-66
2021/04/16 14:14:25;;;;;;;5.43;4.30;;;;;;;;;;5054918;28;20508;-69
2021/04/16 14:16:56;;;;;;;5.67;5.07;;;;;;;;;;5054883;28;20432;-68
2021/04/16 14:19:23;;;;;;;5.43;4.90;;;;;;;;;;5056272;28;20435;-68
2021/04/16 14:21:54;;;;;;;5.67;5.07;;;;;;;;;;5054045;28;20754;-67
2021/04/16 14:24:20;;;;;;;8.33;5.27;;;;;;;;;;5047529;28;20415;-67
2021/04/16 14:26:47;;;;;;;5.30;4.57;;;;;;;;;;5055524;28;20836;-66
2021/04/16 14:29:13;;;;;;;5.77;4.30;;;;;;;;;;5046682;28;20462;-66
2021/04/16 14:31:40;;;;;;;6.90;4.97;;;;;;;;;;5055323;28;20886;-66
2021/04/16 14:34:07;;;;;;;7.27;4.80;;;;;;;;;;5052948;28;20478;-66
2021/04/16 14:36:34;;;;;;;6.23;5.07;;;;;;;;;;5055906;28;20929;-66
2021/04/16 14:39:00;;;;;;;7.17;5.73;;;;;;;;;;5059231;28;20452;-67
2021/04/16 14:41:27;;;;;;;7.27;4.87;;;;;;;;;;5052778;28;20432;-66
2021/04/16 14:43:53;;;;;;;6.80;4.73;;;;;;;;;;5046705;28;20454;-65
2021/04/16 14:46:20;;;;;;;6.30;4.47;;;;;;;;;;5056750;28;20463;-66
2021/04/16 14:48:46;;;;;;;7.27;5.50;;;;;;;;;;5050429;28;20448;-67
2021/04/16 14:51:12;;;;;;;5.93;5.00;;;;;;;;;;5056790;28;20423;-68
2021/04/16 14:53:38;;;;;;;7.10;5.07;;;;;;;;;;5047030;28;20793;-67
2021/04/16 14:56:05;;;;;;;5.60;4.60;;;;;;;;;;5054775;28;20404;-68
2021/04/16 14:58:40;;;;;;;5.50;4.33;;;;;;;;;;5057120;28;20475;-65
2021/04/16 15:01:09;;;;;;;6.10;5.50;;;;;;;;;;5057825;28;20787;-67
2021/04/16 15:03:35;;;;;;;5.97;5.30;;;;;;;;;;5053616;28;20431;-66
2021/04/16 15:06:02;;;;;;;5.03;4.28;;;;;;;;;;5055454;28;20423;-66
2021/04/16 15:08:31;;;;;;;6.17;4.63;;;;;;;;;;5052433;28;20192;-66
2021/04/16 15:11:11;;;;;;;6.73;5.00;;;;;;;;;;5054205;28;20851;-66
2021/04/16 15:13:37;;;;;;;4.90;4.07;;;;;;;;;;5053579;28;20427;-65
2021/04/16 15:16:06;;;;;;;7.10;4.07;;;;;;;;;;5055102;28;20492;-66
2021/04/16 15:18:32;;;;;;;5.47;4.60;;;;;;;;;;5053666;28;20454;-69
2021/04/16 15:20:59;;;;;;;5.40;4.40;;;;;;;;;;5053735;28;20418;-68
2021/04/16 15:23:26;;;;;;;5.80;4.67;;;;;;;;;;5060882;28;20508;-66
2021/04/16 15:25:54;;;;;;;6.00;4.97;;;;;;;;;;5053949;28;20484;-66
2021/04/16 15:28:25;;;;;;;7.40;5.37;;;;;;;;;;5053653;28;20472;-69
2021/04/16 15:30:54;;;;;;;5.83;4.50;;;;;;;;;;5054651;28;20508;-66
2021/04/16 15:33:24;;;;;;;7.40;4.63;;;;;;;;;;5065887;28;20422;-66
2021/04/16 15:49:23;;;;;;;6.30;4.40;;;;;;;;;;5085567;28;20428;-72
2021/04/16 15:51:50;;;;;;;5.60;4.40;;;;;;;;;;5081725;28;20454;-73
2021/04/16 15:54:16;;;;;;;6.20;4.03;;;;;;;;;;5086543;28;20449;-74
2021/04/16 15:56:44;;;;;;;5.57;4.50;;;;;;;;;;5096099;28;20446;-73
2021/04/16 15:59:18;;;;;;;6.87;4.93;;;;;;;;;;5093431;28;20438;-73
2021/04/16 16:01:44;;;;;;;6.03;4.73;;;;;;;;;;5094519;28;20422;-73
2021/04/16 16:04:11;;;;;;;6.03;4.70;;;;;;;;;;5094251;28;20454;-73
2021/04/16 16:06:39;;;;;;;6.20;4.40;;;;;;;;;;5094246;28;20463;-73
2021/04/16 16:09:06;;;;;;;5.43;4.00;;;;;;;;;;5093329;28;20427;-73
2021/04/16 16:11:36;;;;;;;6.90;4.10;;;;;;;;;;5090306;28;20515;-73
2021/04/16 16:14:06;;;;;;;5.40;4.10;;;;;;;;;;5099111;28;20413;-73
2021/04/16 16:16:32;;;;;;;5.90;5.13;;;;;;;;;;5092764;28;20919;-73
2021/04/16 16:18:59;;;;;;;5.70;4.47;;;;;;;;;;5094666;28;20440;-74
2021/04/16 16:21:25;;;;;;;6.57;5.00;;;;;;;;;;5075013;28;20475;-73
2021/04/16 16:23:52;;;;;;;4.73;3.37;;;;;;;;;;5094426;28;20408;-74
2021/04/16 16:26:20;;;;;;;7.20;4.80;;;;;;;;;;5092985;28;20411;-78
2021/04/16 16:28:46;;;;;;;5.57;4.30;;;;;;;;;;5073889;28;20948;-73
2021/04/16 16:31:12;;;;;;;6.47;4.50;;;;;;;;;;5073830;28;20438;-76
2021/04/16 16:33:39;;;;;;;9.93;5.17;;;;;;;;;;5093758;28;20773;-73
2021/04/16 16:36:06;;;;;;;6.20;4.00;;;;;;;;;;5094479;28;20426;-73
2021/04/16 16:38:32;;;;;;;5.10;4.60;;;;;;;;;;5074329;28;20423;-73
2021/04/16 16:40:58;;;;;;;6.47;4.10;;;;;;;;;;5074029;28;20399;-73
2021/04/16 16:43:24;;;;;;;7.53;4.17;;;;;;;;;;5090838;28;20433;-73
2021/04/16 16:45:53;;;;;;;5.30;4.13;;;;;;;;;;5093714;28;20445;-73
2021/04/16 16:48:19;;;;;;;5.00;3.97;;;;;;;;;;5092686;28;20472;-73
2021/04/16 16:50:46;;;;;;;7.10;4.90;;;;;;;;;;5093844;28;20490;-73
2021/04/16 16:53:13;;;;;;;6.40;4.17;;;;;;;;;;5079806;28;20424;-73
2021/04/16 16:55:40;;;;;;;7.80;5.10;;;;;;;;;;5073668;28;20428;-73
2021/04/16 16:58:06;;;;;;;5.60;4.60;;;;;;;;;;5073367;28;20432;-73
2021/04/16 17:00:43;;;;;;;6.30;4.37;;;;;;;;;;5073332;28;20489;-73
2021/04/16 17:03:09;;;;;;;4.97;4.47;;;;;;;;;;5073548;28;20437;-73
2021/04/16 17:05:35;;;;;;;6.73;4.33;;;;;;;;;;5073289;28;20475;-73
2021/04/16 17:08:01;;;;;;;4.10;3.57;;;;;;;;;;5086455;28;20463;-73
2021/04/16 17:10:27;;;;;;;7.03;5.03;;;;;;;;;;5093358;28;20425;-73
2021/04/16 17:12:53;;;;;;;5.40;4.00;;;;;;;;;;5092371;28;20436;-73
2021/04/16 17:15:35;;;;;;;5.37;4.07;;;;;;;;;;5074448;28;20543;-73